createdAt,value
2023-03-22T00:00:00.149Z,13.80
2023-03-22T00:01:00.397Z,14.10
2023-03-22T00:02:00.656Z,13.60
2023-03-22T00:03:00.919Z,14.90
2023-03-22T00:04:01.233Z,13.50
2023-03-22T00:05:01.493Z,13.20
2023-03-22T00:06:01.901Z,14.60
2023-03-22T00:07:01.999Z,14.10
2023-03-22T00:08:02.247Z,14.50
2023-03-22T00:09:02.511Z,14.60
2023-03-22T00:10:02.767Z,14.10
2023-03-22T00:11:02.997Z,14.60
2023-03-22T00:12:03.268Z,15.10
2023-03-22T00:13:03.495Z,13.90
2023-03-22T00:14:03.739Z,14.90
2023-03-22T00:15:03.968Z,13.70
2023-03-22T00:16:04.236Z,14.80
2023-03-22T00:17:04.521Z,13.70
2023-03-22T00:18:04.747Z,15.00
2023-03-22T00:19:04.967Z,14.80
2023-03-22T00:20:05.198Z,14.20
2023-03-22T00:21:05.427Z,14.80
2023-03-22T00:22:05.667Z,14.60
2023-03-22T00:23:05.899Z,15.70
2023-03-22T00:24:06.128Z,14.70
2023-03-22T00:25:06.371Z,15.20
2023-03-22T00:26:06.619Z,15.60
2023-03-22T00:27:06.865Z,15.40
2023-03-22T00:28:07.119Z,16.20
2023-03-22T00:29:07.356Z,15.70
2023-03-22T00:30:07.595Z,15.50
2023-03-22T00:31:07.885Z,16.00
2023-03-22T00:32:08.182Z,16.20
2023-03-22T00:33:08.435Z,15.80
2023-03-22T00:34:08.683Z,16.20
2023-03-22T00:35:08.910Z,15.30
2023-03-22T00:36:09.153Z,16.60
2023-03-22T00:37:09.423Z,16.10
2023-03-22T00:38:09.676Z,16.20
2023-03-22T00:39:09.934Z,16.80
2023-03-22T00:40:10.179Z,16.50
2023-03-22T00:41:10.432Z,15.90
2023-03-22T00:42:10.666Z,17.10
2023-03-22T00:43:10.877Z,16.80
2023-03-22T00:44:11.227Z,16.90
2023-03-22T00:45:11.608Z,16.80
2023-03-22T00:46:11.878Z,17.00
2023-03-22T00:47:12.132Z,16.90
2023-03-22T00:48:12.481Z,16.40
2023-03-22T00:49:12.701Z,16.70
2023-03-22T00:50:12.962Z,17.40
2023-03-22T00:51:13.200Z,17.00
2023-03-22T00:52:13.441Z,17.80
2023-03-22T00:53:13.693Z,17.20
2023-03-22T00:54:13.927Z,17.70
2023-03-22T00:55:14.159Z,17.60
2023-03-22T00:56:14.567Z,17.20
2023-03-22T00:57:14.763Z,18.10
2023-03-22T00:58:14.982Z,17.30
2023-03-22T00:59:15.353Z,17.20
2023-03-22T01:00:15.583Z,16.80
2023-03-22T01:01:15.906Z,17.00
2023-03-22T01:02:16.089Z,17.10
2023-03-22T01:03:16.369Z,18.10
2023-03-22T01:04:16.604Z,17.90
2023-03-22T01:05:16.883Z,17.80
2023-03-22T01:06:17.118Z,18.70
2023-03-22T01:07:17.354Z,18.20
2023-03-22T01:08:17.584Z,18.40
2023-03-22T01:09:17.830Z,18.20
2023-03-22T01:10:18.062Z,18.20
2023-03-22T01:11:18.298Z,18.20
2023-03-22T01:12:18.557Z,18.70
2023-03-22T01:13:18.802Z,18.40
2023-03-22T01:14:19.027Z,19.10
2023-03-22T01:15:19.324Z,18.80
2023-03-22T01:16:19.595Z,19.90
2023-03-22T01:17:19.851Z,19.10
2023-03-22T01:18:20.156Z,20.30
2023-03-22T01:19:20.384Z,19.50
2023-03-22T01:20:20.624Z,18.90
2023-03-22T01:21:20.854Z,19.00
2023-03-22T01:22:21.115Z,19.70
2023-03-22T01:23:21.355Z,19.20
2023-03-22T01:24:21.612Z,20.60
2023-03-22T01:25:21.856Z,19.50
2023-03-22T01:26:22.114Z,19.40
2023-03-22T01:27:22.374Z,19.70
2023-03-22T01:28:23.333Z,19.60
2023-03-22T01:29:22.852Z,19.80
2023-03-22T01:30:23.097Z,19.20
2023-03-22T01:31:23.473Z,20.10
2023-03-22T01:32:23.690Z,20.80
2023-03-22T01:33:23.896Z,20.00
2023-03-22T01:34:24.146Z,19.80
2023-03-22T01:35:24.471Z,20.40
2023-03-22T01:36:24.717Z,19.60
2023-03-22T01:37:24.976Z,19.40
2023-03-22T01:38:25.218Z,20.20
2023-03-22T01:39:25.452Z,21.00
2023-03-22T01:40:25.689Z,20.00
2023-03-22T01:41:26.008Z,20.20
2023-03-22T01:42:26.245Z,19.70
2023-03-22T01:43:26.484Z,20.90
2023-03-22T01:44:26.723Z,20.60
2023-03-22T01:45:26.960Z,20.50
2023-03-22T01:46:27.235Z,20.80
2023-03-22T01:47:27.496Z,20.40
2023-03-22T01:48:27.770Z,20.30
2023-03-22T01:49:28.045Z,21.40
2023-03-22T01:50:28.293Z,21.00
2023-03-22T01:51:28.516Z,20.60
2023-03-22T01:52:28.807Z,20.50
2023-03-22T01:53:29.063Z,20.90
2023-03-22T01:54:29.356Z,21.10
2023-03-22T01:55:29.625Z,20.90
2023-03-22T01:56:29.884Z,20.40
2023-03-22T01:57:30.125Z,20.60
2023-03-22T01:58:30.388Z,21.70
2023-03-22T01:59:30.617Z,20.70
2023-03-22T02:00:30.867Z,20.90
2023-03-22T02:01:31.150Z,21.10
2023-03-22T02:02:31.462Z,21.20
2023-03-22T02:03:31.701Z,21.20
2023-03-22T02:04:31.944Z,20.60
2023-03-22T02:05:32.191Z,20.20
2023-03-22T02:06:32.450Z,20.40
2023-03-22T02:07:32.733Z,20.30
2023-03-22T02:08:32.991Z,20.40
2023-03-22T02:09:33.235Z,19.90
2023-03-22T02:10:33.483Z,20.00
2023-03-22T02:11:33.782Z,19.80
2023-03-22T02:12:34.056Z,19.90
2023-03-22T02:13:34.266Z,19.60
2023-03-22T02:14:34.620Z,20.10
2023-03-22T02:15:34.909Z,21.20
2023-03-22T02:16:35.175Z,21.60
2023-03-22T02:17:35.437Z,20.30
2023-03-22T02:18:35.664Z,20.70
2023-03-22T02:19:35.892Z,20.90
2023-03-22T02:20:36.296Z,20.70
2023-03-22T02:21:36.524Z,21.70
2023-03-22T02:22:36.784Z,21.10
2023-03-22T02:23:37.025Z,20.70
2023-03-22T02:24:37.295Z,21.20
2023-03-22T02:25:37.548Z,20.30
2023-03-22T02:26:37.784Z,20.10
2023-03-22T02:27:38.053Z,20.50
2023-03-22T02:28:38.299Z,20.00
2023-03-22T02:29:38.530Z,20.50
2023-03-22T02:30:39.014Z,20.30
2023-03-22T02:31:39.077Z,19.00
2023-03-22T02:32:39.450Z,19.30
2023-03-22T02:33:41.599Z,19.60
2023-03-22T02:34:40.009Z,19.00
2023-03-22T02:35:40.273Z,20.70
2023-03-22T02:36:40.509Z,19.70
2023-03-22T02:37:40.770Z,19.90
2023-03-22T02:38:41.010Z,19.70
2023-03-22T02:39:41.267Z,19.80
2023-03-22T02:40:41.652Z,19.40
2023-03-22T02:41:41.818Z,20.20
2023-03-22T02:42:42.079Z,18.50
2023-03-22T02:43:42.331Z,19.10
2023-03-22T02:44:42.575Z,19.80
2023-03-22T02:45:42.803Z,18.90
2023-03-22T02:46:43.096Z,18.30
2023-03-22T02:47:43.459Z,18.60
2023-03-22T02:48:43.598Z,19.10
2023-03-22T02:49:43.830Z,19.10
2023-03-22T02:50:44.091Z,18.50
2023-03-22T02:51:44.358Z,18.70
2023-03-22T02:52:44.607Z,17.80
2023-03-22T02:53:44.840Z,19.00
2023-03-22T02:54:45.096Z,18.70
2023-03-22T02:55:45.336Z,19.20
2023-03-22T02:56:45.575Z,18.10
2023-03-22T02:57:45.819Z,17.60
2023-03-22T02:58:46.093Z,18.00
2023-03-22T02:59:46.350Z,17.90
2023-03-22T03:00:46.629Z,18.00
2023-03-22T03:01:46.941Z,16.70
2023-03-22T03:02:47.209Z,16.60
2023-03-22T03:03:47.463Z,17.80
2023-03-22T03:04:47.792Z,17.30
2023-03-22T03:05:48.048Z,17.60
2023-03-22T03:06:48.295Z,16.80
2023-03-22T03:07:48.549Z,17.10
2023-03-22T03:08:48.806Z,17.30
2023-03-22T03:09:49.061Z,16.30
2023-03-22T03:10:49.293Z,17.30
2023-03-22T03:11:49.635Z,17.00
2023-03-22T03:12:49.883Z,16.40
2023-03-22T03:13:50.126Z,18.10
2023-03-22T03:14:50.364Z,16.30
2023-03-22T03:15:50.653Z,16.50
2023-03-22T03:16:50.892Z,16.30
2023-03-22T03:17:51.168Z,16.20
2023-03-22T03:18:51.478Z,16.90
2023-03-22T03:19:51.771Z,16.60
2023-03-22T03:20:51.986Z,17.10
2023-03-22T03:21:52.241Z,16.70
2023-03-22T03:22:52.533Z,16.70
2023-03-22T03:23:52.771Z,17.70
2023-03-22T03:24:53.019Z,16.50
2023-03-22T03:25:53.272Z,16.00
2023-03-22T03:26:53.514Z,16.60
2023-03-22T03:27:53.762Z,16.70
2023-03-22T03:28:54.022Z,17.70
2023-03-22T03:29:54.294Z,17.00
2023-03-22T03:30:54.520Z,17.00
2023-03-22T03:31:54.843Z,17.40
2023-03-22T03:32:55.034Z,16.60
2023-03-22T03:33:55.279Z,16.80
2023-03-22T03:34:55.515Z,17.60
2023-03-22T03:35:55.817Z,16.20
2023-03-22T03:36:56.051Z,18.00
2023-03-22T03:37:56.326Z,16.60
2023-03-22T03:38:56.564Z,17.40
2023-03-22T03:39:56.834Z,17.10
2023-03-22T03:40:57.045Z,17.40
2023-03-22T03:41:57.318Z,17.40
2023-03-22T03:42:57.582Z,17.00
2023-03-22T03:43:57.853Z,16.50
2023-03-22T03:44:58.090Z,16.40
2023-03-22T03:45:58.403Z,17.00
2023-03-22T03:46:58.706Z,16.40
2023-03-22T03:47:59.046Z,16.30
2023-03-22T03:48:59.298Z,16.20
2023-03-22T03:49:59.539Z,16.80
2023-03-22T03:50:59.781Z,16.90
2023-03-22T03:52:00.047Z,16.30
2023-03-22T03:53:00.341Z,16.20
2023-03-22T03:54:00.577Z,16.10
2023-03-22T03:55:00.831Z,16.00
2023-03-22T03:56:01.080Z,16.00
2023-03-22T03:57:03.457Z,16.30
2023-03-22T03:58:01.607Z,15.20
2023-03-22T03:59:01.829Z,15.30
2023-03-22T04:00:02.090Z,15.40
2023-03-22T04:01:02.346Z,16.20
2023-03-22T04:02:02.647Z,15.70
2023-03-22T04:03:02.941Z,16.20
2023-03-22T04:04:03.220Z,16.40
2023-03-22T04:05:03.475Z,16.80
2023-03-22T04:06:03.719Z,16.30
2023-03-22T04:07:03.963Z,16.70
2023-03-22T04:08:04.234Z,16.60
2023-03-22T04:09:04.474Z,16.10
2023-03-22T04:10:04.721Z,16.70
2023-03-22T04:11:04.956Z,17.70
2023-03-22T04:12:05.225Z,16.80
2023-03-22T04:13:05.503Z,16.50
2023-03-22T04:14:05.749Z,16.20
2023-03-22T04:15:05.998Z,15.70
2023-03-22T04:16:06.225Z,16.40
2023-03-22T04:17:06.469Z,15.90
2023-03-22T04:18:06.718Z,16.70
2023-03-22T04:19:06.946Z,16.90
2023-03-22T04:20:07.196Z,16.50
2023-03-22T04:21:07.451Z,16.70
2023-03-22T04:22:07.694Z,17.30
2023-03-22T04:23:08.409Z,17.30
2023-03-22T04:24:08.203Z,17.70
2023-03-22T04:25:08.426Z,17.20
2023-03-22T04:26:08.668Z,16.20
2023-03-22T04:27:08.888Z,16.60
2023-03-22T04:28:09.142Z,17.30
2023-03-22T04:29:09.389Z,16.40
2023-03-22T04:30:09.646Z,16.20
2023-03-22T04:31:10.104Z,15.90
2023-03-22T04:32:10.295Z,17.40
2023-03-22T04:33:10.552Z,16.10
2023-03-22T04:34:10.792Z,17.10
2023-03-22T04:35:11.023Z,16.70
2023-03-22T04:36:11.270Z,17.40
2023-03-22T04:37:11.480Z,17.20
2023-03-22T04:38:11.886Z,16.60
2023-03-22T04:39:12.118Z,16.40
2023-03-22T04:40:12.414Z,16.20
2023-03-22T04:41:12.665Z,16.80
2023-03-22T04:42:12.903Z,16.60
2023-03-22T04:43:13.878Z,17.80
2023-03-22T04:44:13.492Z,16.80
2023-03-22T04:45:13.755Z,17.00
2023-03-22T04:46:14.078Z,16.90
2023-03-22T04:47:14.350Z,17.30
2023-03-22T04:48:14.665Z,17.50
2023-03-22T04:49:14.903Z,16.70
2023-03-22T04:50:15.165Z,16.50
2023-03-22T04:51:15.442Z,17.00
2023-03-22T04:52:15.706Z,17.00
2023-03-22T04:53:15.975Z,16.80
2023-03-22T04:54:16.252Z,16.10
2023-03-22T04:55:16.491Z,16.60
2023-03-22T04:56:16.742Z,16.40
2023-03-22T04:57:16.990Z,17.40
2023-03-22T04:58:17.298Z,16.70
2023-03-22T04:59:17.554Z,18.00
2023-03-22T05:00:17.839Z,17.10
2023-03-22T05:01:18.175Z,16.20
2023-03-22T05:02:18.341Z,16.60
2023-03-22T05:03:18.627Z,16.70
2023-03-22T05:04:18.889Z,16.70
2023-03-22T05:05:19.170Z,17.20
2023-03-22T05:06:19.456Z,17.00
2023-03-22T05:07:19.733Z,16.80
2023-03-22T05:08:20.028Z,16.90
2023-03-22T05:09:23.177Z,16.90
2023-03-22T05:10:20.597Z,17.50
2023-03-22T05:11:20.858Z,16.70
2023-03-22T05:12:21.131Z,16.00
2023-03-22T05:13:21.412Z,16.80
2023-03-22T05:14:21.747Z,16.50
2023-03-22T05:15:22.010Z,16.00
2023-03-22T05:16:22.337Z,17.00
2023-03-22T05:17:22.613Z,16.80
2023-03-22T05:18:22.933Z,17.40
2023-03-22T05:19:23.206Z,17.30
2023-03-22T05:20:23.500Z,16.60
2023-03-22T05:21:23.881Z,16.90
2023-03-22T05:22:24.041Z,17.10
2023-03-22T05:23:24.311Z,17.10
2023-03-22T05:24:24.583Z,16.50
2023-03-22T05:25:24.873Z,16.40
2023-03-22T05:26:25.277Z,16.80
2023-03-22T05:27:25.433Z,16.70
2023-03-22T05:28:25.722Z,17.20
2023-03-22T05:29:26.026Z,17.30
2023-03-22T05:30:26.323Z,16.90
2023-03-22T05:31:26.655Z,16.80
2023-03-22T05:32:26.915Z,16.60
2023-03-22T05:33:27.233Z,16.40
2023-03-22T05:34:27.534Z,16.50
2023-03-22T05:35:27.875Z,16.40
2023-03-22T05:36:28.206Z,16.20
2023-03-22T05:37:28.506Z,15.60
2023-03-22T05:38:28.818Z,16.00
2023-03-22T05:39:29.087Z,16.30
2023-03-22T05:40:29.396Z,16.90
2023-03-22T05:41:29.679Z,16.20
2023-03-22T05:42:29.964Z,16.40
2023-03-22T05:43:30.253Z,16.00
2023-03-22T05:44:30.501Z,17.20
2023-03-22T05:45:30.771Z,16.30
2023-03-22T05:46:31.130Z,16.50
2023-03-22T05:47:31.345Z,16.10
2023-03-22T05:48:31.641Z,16.70
2023-03-22T05:49:31.922Z,16.50
2023-03-22T05:50:32.206Z,16.50
2023-03-22T05:51:32.512Z,16.20
2023-03-22T05:52:32.818Z,15.30
2023-03-22T05:53:33.131Z,16.40
2023-03-22T05:54:33.412Z,16.50
2023-03-22T05:55:33.704Z,16.60
2023-03-22T05:56:33.995Z,16.60
2023-03-22T05:57:34.288Z,15.60
2023-03-22T05:58:34.640Z,15.80
2023-03-22T05:59:34.918Z,15.70
2023-03-22T06:00:35.200Z,15.50
2023-03-22T06:01:35.592Z,16.40
2023-03-22T06:02:35.774Z,16.00
2023-03-22T06:03:36.142Z,16.10
2023-03-22T06:04:36.317Z,16.60
2023-03-22T06:05:36.620Z,15.60
2023-03-22T06:06:36.901Z,15.60
2023-03-22T06:07:37.170Z,15.60
2023-03-22T06:08:37.600Z,16.00
2023-03-22T06:09:37.713Z,15.00
2023-03-22T06:10:38.532Z,15.90
2023-03-22T06:11:38.244Z,16.90
2023-03-22T06:12:38.597Z,15.40
2023-03-22T06:13:38.906Z,15.90
2023-03-22T06:14:39.251Z,15.70
2023-03-22T06:15:39.525Z,15.80
2023-03-22T06:16:39.940Z,15.60
2023-03-22T06:17:40.076Z,15.10
2023-03-22T06:18:40.376Z,15.30
2023-03-22T06:19:40.680Z,15.70
2023-03-22T06:20:41.561Z,14.90
2023-03-22T06:21:41.308Z,15.30
2023-03-22T06:22:41.603Z,15.80
2023-03-22T06:23:41.947Z,15.70
2023-03-22T06:24:42.249Z,14.80
2023-03-22T06:25:42.537Z,15.20
2023-03-22T06:26:42.858Z,16.00
2023-03-22T06:27:43.168Z,15.30
2023-03-22T06:28:43.496Z,16.30
2023-03-22T06:29:43.775Z,14.90
2023-03-22T06:30:44.111Z,15.90
2023-03-22T06:31:44.431Z,14.40
2023-03-22T06:32:44.716Z,15.60
2023-03-22T06:33:45.062Z,15.00
2023-03-22T06:34:45.253Z,15.40
2023-03-22T06:35:45.645Z,14.80
2023-03-22T06:36:45.812Z,16.50
2023-03-22T06:37:46.197Z,15.00
2023-03-22T06:38:46.412Z,14.70
2023-03-22T06:39:46.710Z,14.30
2023-03-22T06:40:47.012Z,15.40
2023-03-22T06:41:47.312Z,15.60
2023-03-22T06:42:47.611Z,14.90
2023-03-22T06:43:47.935Z,14.00
2023-03-22T06:44:48.207Z,13.70
2023-03-22T06:45:48.650Z,13.80
2023-03-22T06:46:48.801Z,13.40
2023-03-22T06:47:49.114Z,14.20
2023-03-22T06:48:49.428Z,12.90
2023-03-22T06:49:49.715Z,12.80
2023-03-22T06:50:50.063Z,13.10
2023-03-22T06:51:50.243Z,12.70
2023-03-22T06:52:50.534Z,12.50
2023-03-22T06:53:50.846Z,12.90
2023-03-22T06:54:51.125Z,12.30
2023-03-22T06:55:53.247Z,12.00
2023-03-22T06:56:51.689Z,12.40
2023-03-22T06:57:51.991Z,12.50
2023-03-22T06:58:52.319Z,12.20
2023-03-22T06:59:52.690Z,12.10
2023-03-22T07:00:52.893Z,11.20
2023-03-22T07:01:53.176Z,11.70
2023-03-22T07:02:53.477Z,12.00
2023-03-22T07:03:53.785Z,12.20
2023-03-22T07:04:54.184Z,11.90
2023-03-22T07:05:55.098Z,11.30
2023-03-22T07:06:54.626Z,11.80
2023-03-22T07:07:54.926Z,11.20
2023-03-22T07:08:55.218Z,11.00
2023-03-22T07:09:55.526Z,11.20
2023-03-22T07:10:55.761Z,12.00
2023-03-22T07:11:56.036Z,11.00
2023-03-22T07:12:57.221Z,11.30
2023-03-22T07:13:56.632Z,11.20
2023-03-22T07:14:56.948Z,11.50
2023-03-22T07:15:57.278Z,10.70
2023-03-22T07:16:57.472Z,10.30
2023-03-22T07:17:57.772Z,11.20
2023-03-22T07:18:58.089Z,10.70
2023-03-22T07:19:58.792Z,11.00
2023-03-22T07:20:59.402Z,10.20
2023-03-22T07:21:58.905Z,10.60
2023-03-22T07:22:59.201Z,10.50
2023-03-22T07:23:59.508Z,10.30
2023-03-22T07:25:01.664Z,10.10
2023-03-22T07:26:00.127Z,10.90
2023-03-22T07:27:00.408Z,9.70
2023-03-22T07:28:00.682Z,11.00
2023-03-22T07:29:00.969Z,10.40
2023-03-22T07:30:01.270Z,10.10
2023-03-22T07:31:01.580Z,10.10
2023-03-22T07:32:01.905Z,10.00
2023-03-22T07:33:02.184Z,9.70
2023-03-22T07:34:02.516Z,10.00
2023-03-22T07:35:02.824Z,9.50
2023-03-22T07:36:03.123Z,10.20
2023-03-22T07:37:03.433Z,10.10
2023-03-22T07:38:03.785Z,10.20
2023-03-22T07:39:04.106Z,10.00
2023-03-22T07:40:04.331Z,9.50
2023-03-22T07:41:04.605Z,9.50
2023-03-22T07:42:04.923Z,9.70
2023-03-22T07:43:05.202Z,10.40
2023-03-22T07:44:17.387Z,10.10
2023-03-22T07:45:06.843Z,10.00
2023-03-22T07:46:06.095Z,9.50
2023-03-22T07:47:06.365Z,9.50
2023-03-22T07:48:06.731Z,9.50
2023-03-22T07:49:06.911Z,9.00
2023-03-22T07:50:07.189Z,9.70
2023-03-22T07:51:07.469Z,9.30
2023-03-22T07:52:07.747Z,8.50
2023-03-22T07:53:08.007Z,9.20
2023-03-22T07:54:08.307Z,9.20
2023-03-22T07:55:08.581Z,8.70
2023-03-22T07:56:08.869Z,9.00
2023-03-22T07:57:09.114Z,9.60
2023-03-22T07:58:09.402Z,9.10
2023-03-22T07:59:09.694Z,8.60
2023-03-22T08:00:10.017Z,9.30
2023-03-22T08:01:10.306Z,9.20
2023-03-22T08:02:10.636Z,9.00
2023-03-22T08:03:10.976Z,9.30
2023-03-22T08:04:11.264Z,9.10
2023-03-22T08:05:11.559Z,9.40
2023-03-22T08:06:12.029Z,8.90
2023-03-22T08:07:12.114Z,8.80
2023-03-22T08:08:12.393Z,8.80
2023-03-22T08:09:12.692Z,9.10
2023-03-22T08:10:12.962Z,9.20
2023-03-22T08:11:13.228Z,9.30
2023-03-22T08:12:13.512Z,9.10
2023-03-22T08:13:13.846Z,8.90
2023-03-22T08:14:14.150Z,8.50
2023-03-22T08:15:14.451Z,8.20
2023-03-22T08:16:14.758Z,8.50
2023-03-22T08:17:15.025Z,8.60
2023-03-22T08:18:15.288Z,8.60
2023-03-22T08:19:15.588Z,8.20
2023-03-22T08:20:15.851Z,8.50
2023-03-22T08:21:16.100Z,8.80
2023-03-22T08:22:16.346Z,8.40
2023-03-22T08:23:16.660Z,9.00
2023-03-22T08:24:16.986Z,8.30
2023-03-22T08:25:17.261Z,8.70
2023-03-22T08:26:17.572Z,8.20
2023-03-22T08:27:17.817Z,8.50
2023-03-22T08:28:18.100Z,8.80
2023-03-22T08:29:18.368Z,8.40
2023-03-22T08:30:18.651Z,8.50
2023-03-22T08:31:19.174Z,8.50
2023-03-22T08:32:19.172Z,9.20
2023-03-22T08:33:19.419Z,8.40
2023-03-22T08:34:19.726Z,8.20
2023-03-22T08:35:20.023Z,7.60
2023-03-22T08:36:20.276Z,8.30
2023-03-22T08:37:20.536Z,8.00
2023-03-22T08:38:20.793Z,7.70
2023-03-22T08:39:21.076Z,8.70
2023-03-22T08:40:21.389Z,8.50
2023-03-22T08:41:21.667Z,8.10
2023-03-22T08:42:21.945Z,8.10
2023-03-22T08:43:22.264Z,7.80
2023-03-22T08:44:22.532Z,8.20
2023-03-22T08:45:22.786Z,7.90
2023-03-22T08:46:23.113Z,8.50
2023-03-22T08:47:23.399Z,8.20
2023-03-22T08:48:23.844Z,7.90
2023-03-22T08:49:23.955Z,8.10
2023-03-22T08:50:24.237Z,8.20
2023-03-22T08:51:24.516Z,8.60
2023-03-22T08:52:24.801Z,8.40
2023-03-22T08:53:25.078Z,8.40
2023-03-22T08:54:25.345Z,8.30
2023-03-22T08:55:25.616Z,8.60
2023-03-22T08:56:25.895Z,8.10
2023-03-22T08:57:26.165Z,7.90
2023-03-22T08:58:26.478Z,8.70
2023-03-22T08:59:26.769Z,8.40
2023-03-22T09:00:33.917Z,8.20
2023-03-22T09:01:28.327Z,8.00
2023-03-22T09:02:27.637Z,7.80
2023-03-22T09:03:27.916Z,7.80
2023-03-22T09:04:28.251Z,9.10
2023-03-22T09:05:28.408Z,8.50
2023-03-22T09:06:28.686Z,8.50
2023-03-22T09:07:28.938Z,8.00
2023-03-22T09:08:29.207Z,8.60
2023-03-22T09:09:29.499Z,8.40
2023-03-22T09:10:29.771Z,8.70
2023-03-22T09:11:30.050Z,7.70
2023-03-22T09:12:30.334Z,7.90
2023-03-22T09:13:30.572Z,8.70
2023-03-22T09:14:30.852Z,8.30
2023-03-22T09:15:31.125Z,8.60
2023-03-22T09:16:31.419Z,8.30
2023-03-22T09:17:31.699Z,9.10
2023-03-22T09:18:31.970Z,8.70
2023-03-22T09:19:32.246Z,7.90
2023-03-22T09:20:32.648Z,8.80
2023-03-22T09:21:32.749Z,9.00
2023-03-22T09:22:33.106Z,8.00
2023-03-22T09:23:33.344Z,7.70
2023-03-22T09:24:33.691Z,7.90
2023-03-22T09:25:33.942Z,7.80
2023-03-22T09:26:34.242Z,8.40
2023-03-22T09:27:34.501Z,7.90
2023-03-22T09:28:34.802Z,7.80
2023-03-22T09:29:35.038Z,7.80
2023-03-22T09:30:35.292Z,7.20
2023-03-22T09:31:35.594Z,8.00
2023-03-22T09:32:35.880Z,8.30
2023-03-22T09:33:36.196Z,8.00
2023-03-22T09:34:36.409Z,7.40
2023-03-22T09:35:36.725Z,8.40
2023-03-22T09:36:36.924Z,7.70
2023-03-22T09:37:37.196Z,7.80
2023-03-22T09:38:37.468Z,7.20
2023-03-22T09:39:37.777Z,7.90
2023-03-22T09:40:38.065Z,7.60
2023-03-22T09:41:38.349Z,8.10
2023-03-22T09:42:38.592Z,8.20
2023-03-22T09:43:38.890Z,7.40
2023-03-22T09:44:39.148Z,7.30
2023-03-22T09:45:39.725Z,7.70
2023-03-22T09:46:39.718Z,7.50
2023-03-22T09:47:44.690Z,7.10
2023-03-22T09:48:41.222Z,8.00
2023-03-22T09:49:52.656Z,7.70
2023-03-22T09:50:41.913Z,8.40
2023-03-22T09:51:41.265Z,8.20
2023-03-22T09:52:41.507Z,7.10
2023-03-22T09:53:41.776Z,7.50
2023-03-22T09:54:42.057Z,7.80
2023-03-22T09:55:42.377Z,7.20
2023-03-22T09:56:42.543Z,7.40
2023-03-22T09:57:42.791Z,8.00
2023-03-22T09:58:43.113Z,8.20
2023-03-22T09:59:43.381Z,8.10
2023-03-22T10:00:43.774Z,7.50
2023-03-22T10:01:44.136Z,7.80
2023-03-22T10:02:44.320Z,8.20
2023-03-22T10:05:07.451Z,7.80
2023-03-22T10:06:07.425Z,8.30
2023-03-22T10:07:07.572Z,7.00
2023-03-22T10:08:07.959Z,7.80
2023-03-22T10:09:08.056Z,7.50
2023-03-22T10:10:08.324Z,8.00
2023-03-22T10:11:08.597Z,7.80
2023-03-22T10:12:08.906Z,7.80
2023-03-22T10:13:09.266Z,7.70
2023-03-22T10:14:09.530Z,8.00
2023-03-22T10:15:09.730Z,8.60
2023-03-22T10:16:10.052Z,9.90
2023-03-22T10:17:10.365Z,8.20
2023-03-22T10:18:10.657Z,7.70
2023-03-22T10:19:10.937Z,7.30
2023-03-22T10:20:11.237Z,8.10
2023-03-22T10:21:11.496Z,8.20
2023-03-22T10:22:11.794Z,7.30
2023-03-22T10:23:12.019Z,7.40
2023-03-22T10:24:12.297Z,7.40
2023-03-22T10:25:12.568Z,6.80
2023-03-22T10:26:12.850Z,7.10
2023-03-22T10:27:13.913Z,6.30
2023-03-22T10:28:13.412Z,7.10
2023-03-22T10:29:13.695Z,6.90
2023-03-22T10:30:14.024Z,6.80
2023-03-22T10:31:14.320Z,7.40
2023-03-22T10:32:14.622Z,7.10
2023-03-22T10:33:14.912Z,6.70
2023-03-22T10:34:15.174Z,7.50
2023-03-22T10:35:15.482Z,6.60
2023-03-22T10:36:15.752Z,6.30
2023-03-22T10:37:16.012Z,6.90
2023-03-22T10:38:16.283Z,6.90
2023-03-22T10:39:16.578Z,7.50
2023-03-22T10:40:16.835Z,7.60
2023-03-22T10:41:17.126Z,6.80
2023-03-22T10:42:17.405Z,7.10
2023-03-22T10:43:17.662Z,7.60
2023-03-22T10:44:17.942Z,6.80
2023-03-22T10:45:18.217Z,7.10
2023-03-22T10:46:18.552Z,7.30
2023-03-22T10:47:18.736Z,6.90
2023-03-22T10:48:19.567Z,7.20
2023-03-22T10:49:19.329Z,7.60
2023-03-22T10:50:19.605Z,6.80
2023-03-22T10:51:19.912Z,6.20
2023-03-22T10:52:20.182Z,6.80
2023-03-22T10:53:20.442Z,5.90
2023-03-22T10:54:20.713Z,6.10
2023-03-22T10:55:21.007Z,6.10
2023-03-22T10:56:21.304Z,6.60
2023-03-22T10:57:21.592Z,6.10
2023-03-22T10:58:21.849Z,5.70
2023-03-22T10:59:22.109Z,6.00
2023-03-22T11:00:22.415Z,6.00
2023-03-22T11:01:22.749Z,6.50
2023-03-22T11:02:23.102Z,6.60
2023-03-22T11:03:23.171Z,5.90
2023-03-22T11:04:23.437Z,5.80
2023-03-22T11:05:23.744Z,6.30
2023-03-22T11:06:23.973Z,6.40
2023-03-22T11:07:24.258Z,5.90
2023-03-22T11:08:24.541Z,6.50
2023-03-22T11:09:24.826Z,6.00
2023-03-22T11:10:25.134Z,6.10
2023-03-22T11:11:25.367Z,5.50
2023-03-22T11:12:25.617Z,5.90
2023-03-22T11:13:25.867Z,5.90
2023-03-22T11:14:26.112Z,5.50
2023-03-22T11:15:26.407Z,5.70
2023-03-22T11:16:26.703Z,5.90
2023-03-22T11:17:26.983Z,5.70
2023-03-22T11:18:27.232Z,6.10
2023-03-22T11:19:27.496Z,6.10
2023-03-22T11:20:29.804Z,6.10
2023-03-22T11:21:28.021Z,6.10
2023-03-22T11:22:28.284Z,6.30
2023-03-22T11:23:28.569Z,6.10
2023-03-22T11:24:28.803Z,5.90
2023-03-22T11:25:29.101Z,6.00
2023-03-22T11:26:29.336Z,6.30
2023-03-22T11:27:29.595Z,5.90
2023-03-22T11:28:29.815Z,6.00
2023-03-22T11:29:30.090Z,5.60
2023-03-22T11:30:30.355Z,6.00
2023-03-22T11:31:30.641Z,5.90
2023-03-22T11:32:30.909Z,5.80
2023-03-22T11:33:31.196Z,6.00
2023-03-22T11:34:31.472Z,6.50
2023-03-22T11:35:31.785Z,5.60
2023-03-22T11:36:31.947Z,6.00
2023-03-22T11:37:32.270Z,6.00
2023-03-22T11:38:32.537Z,6.40
2023-03-22T11:39:32.796Z,6.50
2023-03-22T11:40:34.053Z,6.80
2023-03-22T11:41:33.352Z,7.20
2023-03-22T11:42:33.606Z,6.60
2023-03-22T11:43:33.877Z,6.80
2023-03-22T11:44:34.136Z,6.40
2023-03-22T11:45:34.412Z,6.00
2023-03-22T11:46:35.570Z,6.60
2023-03-22T11:47:34.928Z,6.30
2023-03-22T11:48:35.270Z,6.10
2023-03-22T11:49:35.496Z,6.50
2023-03-22T11:50:35.744Z,6.70
2023-03-22T11:51:36.004Z,7.00
2023-03-22T11:52:36.256Z,6.60
2023-03-22T11:53:36.517Z,6.10
2023-03-22T11:54:36.789Z,6.60
2023-03-22T11:55:37.043Z,6.60
2023-03-22T11:56:37.307Z,6.60
2023-03-22T11:57:37.573Z,6.20
2023-03-22T11:58:37.832Z,6.80
2023-03-22T11:59:38.095Z,7.00
2023-03-22T12:00:38.356Z,6.60
2023-03-22T12:01:38.620Z,7.00
2023-03-22T12:02:38.975Z,7.00
2023-03-22T12:03:39.747Z,6.80
2023-03-22T12:04:39.489Z,5.80
2023-03-22T12:05:40.065Z,6.00
2023-03-22T12:06:40.071Z,6.00
2023-03-22T12:07:40.330Z,6.20
2023-03-22T12:08:40.579Z,6.70
2023-03-22T12:09:40.848Z,6.70
2023-03-22T12:10:41.107Z,6.20
2023-03-22T12:11:41.384Z,6.40
2023-03-22T12:12:41.642Z,5.90
2023-03-22T12:13:41.922Z,5.70
2023-03-22T12:14:42.218Z,6.60
2023-03-22T12:15:42.765Z,5.90
2023-03-22T12:16:42.796Z,6.30
2023-03-22T12:17:42.988Z,5.60
2023-03-22T12:18:43.322Z,6.00
2023-03-22T12:19:43.547Z,5.10
2023-03-22T12:20:43.828Z,5.60
2023-03-22T12:21:44.083Z,5.20
2023-03-22T12:22:44.338Z,6.10
2023-03-22T12:23:44.597Z,5.40
2023-03-22T12:24:44.870Z,5.30
2023-03-22T12:25:45.156Z,5.20
2023-03-22T12:26:45.390Z,5.70
2023-03-22T12:27:45.647Z,5.20
2023-03-22T12:28:45.909Z,5.40
2023-03-22T12:29:46.186Z,5.30
2023-03-22T12:30:46.479Z,4.60
2023-03-22T12:31:46.812Z,5.90
2023-03-22T12:32:47.114Z,5.20
2023-03-22T12:33:47.364Z,4.70
2023-03-22T12:34:47.612Z,4.70
2023-03-22T12:35:47.912Z,4.50
2023-03-22T12:36:48.173Z,4.90
2023-03-22T12:37:48.434Z,4.70
2023-03-22T12:38:48.689Z,5.20
2023-03-22T12:39:48.965Z,4.80
2023-03-22T12:40:49.295Z,5.00
2023-03-22T12:41:49.553Z,4.40
2023-03-22T12:42:52.412Z,4.70
2023-03-22T12:43:50.085Z,4.30
2023-03-22T12:45:04.109Z,4.30
2023-03-22T12:45:51.616Z,4.50
2023-03-22T12:46:50.838Z,4.40
2023-03-22T12:47:51.194Z,4.10
2023-03-22T12:48:51.524Z,4.20
2023-03-22T12:49:51.833Z,3.60
2023-03-22T12:50:52.109Z,4.30
2023-03-22T12:51:52.385Z,4.50
2023-03-22T12:52:53.892Z,4.50
2023-03-22T12:53:52.898Z,3.90
2023-03-22T12:54:53.183Z,4.10
2023-03-22T12:55:53.454Z,3.50
2023-03-22T12:56:53.711Z,4.30
2023-03-22T12:57:54.039Z,4.00
2023-03-22T12:58:54.298Z,3.40
2023-03-22T12:59:54.582Z,3.60
2023-03-22T13:00:54.890Z,3.80
2023-03-22T13:01:55.157Z,3.80
2023-03-22T13:02:55.494Z,3.30
2023-03-22T13:03:55.800Z,3.20
2023-03-22T13:04:55.934Z,3.10
2023-03-22T13:05:56.203Z,3.00
2023-03-22T13:06:56.456Z,4.00
2023-03-22T13:07:56.751Z,3.20